sensor_id;sensor_type;location;lat;lon;timestamp;P1;durP1;ratioP1;P2;durP2;ratioP2
8058;SDS011;4072;42.668;23.396;2023-04-03T00:00:56;4.47;;;3.20;;
8058;SDS011;4072;42.668;23.396;2023-04-03T00:03:24;5.33;;;3.00;;
8058;SDS011;4072;42.668;23.396;2023-04-03T00:05:52;9.07;;;5.10;;
8058;SDS011;4072;42.668;23.396;2023-04-03T00:08:21;5.47;;;4.60;;
8058;SDS011;4072;42.668;23.396;2023-04-03T00:10:49;2.40;;;2.13;;
8058;SDS011;4072;42.668;23.396;2023-04-03T00:13:17;4.20;;;2.40;;
8058;SDS011;4072;42.668;23.396;2023-04-03T00:15:45;3.43;;;2.27;;
8058;SDS011;4072;42.668;23.396;2023-04-03T00:18:14;3.03;;;2.20;;
8058;SDS011;4072;42.668;23.396;2023-04-03T00:20:42;2.90;;;2.20;;
8058;SDS011;4072;42.668;23.396;2023-04-03T00:23:10;8.37;;;2.33;;
8058;SDS011;4072;42.668;23.396;2023-04-03T00:25:40;2.97;;;2.27;;
8058;SDS011;4072;42.668;23.396;2023-04-03T00:28:08;3.27;;;2.37;;
8058;SDS011;4072;42.668;23.396;2023-04-03T00:30:36;2.27;;;1.87;;
8058;SDS011;4072;42.668;23.396;2023-04-03T00:33:04;2.80;;;2.17;;
8058;SDS011;4072;42.668;23.396;2023-04-03T00:35:33;2.70;;;1.90;;
8058;SDS011;4072;42.668;23.396;2023-04-03T00:38:01;2.67;;;1.67;;
8058;SDS011;4072;42.668;23.396;2023-04-03T00:40:32;2.73;;;2.00;;
8058;SDS011;4072;42.668;23.396;2023-04-03T00:43:05;3.20;;;1.70;;
8058;SDS011;4072;42.668;23.396;2023-04-03T00:45:38;2.03;;;1.60;;
8058;SDS011;4072;42.668;23.396;2023-04-03T00:48:09;1.97;;;1.70;;
8058;SDS011;4072;42.668;23.396;2023-04-03T00:50:39;2.73;;;1.80;;
8058;SDS011;4072;42.668;23.396;2023-04-03T00:53:08;1.90;;;1.70;;
8058;SDS011;4072;42.668;23.396;2023-04-03T00:55:37;3.20;;;1.87;;
8058;SDS011;4072;42.668;23.396;2023-04-03T00:58:07;3.03;;;1.83;;
8058;SDS011;4072;42.668;23.396;2023-04-03T01:00:36;3.03;;;2.27;;
8058;SDS011;4072;42.668;23.396;2023-04-03T01:03:06;3.80;;;2.10;;
8058;SDS011;4072;42.668;23.396;2023-04-03T01:05:33;4.23;;;2.37;;
8058;SDS011;4072;42.668;23.396;2023-04-03T01:08:02;2.13;;;1.93;;
8058;SDS011;4072;42.668;23.396;2023-04-03T01:10:31;2.03;;;1.83;;
8058;SDS011;4072;42.668;23.396;2023-04-03T01:12:59;2.90;;;1.80;;
8058;SDS011;4072;42.668;23.396;2023-04-03T01:15:28;1.87;;;1.77;;
8058;SDS011;4072;42.668;23.396;2023-04-03T01:18:01;3.33;;;2.13;;
8058;SDS011;4072;42.668;23.396;2023-04-03T01:20:35;2.97;;;2.40;;
8058;SDS011;4072;42.668;23.396;2023-04-03T01:23:12;6.73;;;4.20;;
8058;SDS011;4072;42.668;23.396;2023-04-03T01:25:42;6.27;;;4.93;;
8058;SDS011;4072;42.668;23.396;2023-04-03T01:28:13;7.77;;;4.97;;
8058;SDS011;4072;42.668;23.396;2023-04-03T01:30:43;4.87;;;4.00;;
8058;SDS011;4072;42.668;23.396;2023-04-03T01:33:14;12.60;;;8.17;;
8058;SDS011;4072;42.668;23.396;2023-04-03T01:35:42;8.77;;;6.10;;
8058;SDS011;4072;42.668;23.396;2023-04-03T01:38:10;9.23;;;6.17;;
8058;SDS011;4072;42.668;23.396;2023-04-03T01:40:38;6.70;;;5.53;;
8058;SDS011;4072;42.668;23.396;2023-04-03T01:43:06;8.97;;;5.40;;
8058;SDS011;4072;42.668;23.396;2023-04-03T01:45:33;6.60;;;5.07;;
8058;SDS011;4072;42.668;23.396;2023-04-03T01:48:02;7.63;;;5.27;;
8058;SDS011;4072;42.668;23.396;2023-04-03T01:50:31;7.53;;;4.43;;
8058;SDS011;4072;42.668;23.396;2023-04-03T01:52:59;6.83;;;4.80;;
8058;SDS011;4072;42.668;23.396;2023-04-03T01:55:27;7.00;;;4.93;;
8058;SDS011;4072;42.668;23.396;2023-04-03T01:57:55;7.70;;;4.93;;
8058;SDS011;4072;42.668;23.396;2023-04-03T02:00:22;5.73;;;4.93;;
8058;SDS011;4072;42.668;23.396;2023-04-03T02:02:51;6.67;;;5.27;;
8058;SDS011;4072;42.668;23.396;2023-04-03T02:05:19;6.87;;;5.10;;
8058;SDS011;4072;42.668;23.396;2023-04-03T02:07:48;7.27;;;4.67;;
8058;SDS011;4072;42.668;23.396;2023-04-03T02:10:16;6.73;;;5.33;;
8058;SDS011;4072;42.668;23.396;2023-04-03T02:12:44;6.07;;;5.27;;
8058;SDS011;4072;42.668;23.396;2023-04-03T02:15:12;6.40;;;5.23;;
8058;SDS011;4072;42.668;23.396;2023-04-03T02:17:40;7.07;;;5.10;;
8058;SDS011;4072;42.668;23.396;2023-04-03T02:20:08;8.10;;;5.67;;
8058;SDS011;4072;42.668;23.396;2023-04-03T02:22:36;10.40;;;6.00;;
8058;SDS011;4072;42.668;23.396;2023-04-03T02:25:06;6.87;;;5.27;;
8058;SDS011;4072;42.668;23.396;2023-04-03T02:27:34;8.03;;;5.67;;
8058;SDS011;4072;42.668;23.396;2023-04-03T02:30:01;6.87;;;5.73;;
8058;SDS011;4072;42.668;23.396;2023-04-03T02:32:30;7.37;;;5.63;;
8058;SDS011;4072;42.668;23.396;2023-04-03T02:34:58;8.40;;;6.13;;
8058;SDS011;4072;42.668;23.396;2023-04-03T02:37:26;7.10;;;5.13;;
8058;SDS011;4072;42.668;23.396;2023-04-03T02:39:53;8.73;;;5.90;;
8058;SDS011;4072;42.668;23.396;2023-04-03T02:42:23;7.10;;;5.50;;
8058;SDS011;4072;42.668;23.396;2023-04-03T02:44:51;9.33;;;5.57;;
8058;SDS011;4072;42.668;23.396;2023-04-03T02:47:19;6.03;;;4.77;;
8058;SDS011;4072;42.668;23.396;2023-04-03T02:49:47;8.07;;;4.17;;
8058;SDS011;4072;42.668;23.396;2023-04-03T02:52:15;3.10;;;2.60;;
8058;SDS011;4072;42.668;23.396;2023-04-03T02:54:42;3.33;;;2.77;;
8058;SDS011;4072;42.668;23.396;2023-04-03T02:57:10;4.20;;;2.60;;
8058;SDS011;4072;42.668;23.396;2023-04-03T02:59:40;4.10;;;2.50;;
8058;SDS011;4072;42.668;23.396;2023-04-03T03:02:07;2.30;;;2.10;;
8058;SDS011;4072;42.668;23.396;2023-04-03T03:04:36;3.17;;;1.90;;
8058;SDS011;4072;42.668;23.396;2023-04-03T03:07:06;4.27;;;1.93;;
8058;SDS011;4072;42.668;23.396;2023-04-03T03:09:35;2.50;;;2.00;;
8058;SDS011;4072;42.668;23.396;2023-04-03T03:12:04;2.50;;;2.27;;
8058;SDS011;4072;42.668;23.396;2023-04-03T03:14:32;3.87;;;2.50;;
8058;SDS011;4072;42.668;23.396;2023-04-03T03:17:01;2.30;;;1.90;;
8058;SDS011;4072;42.668;23.396;2023-04-03T03:19:29;3.53;;;2.07;;
8058;SDS011;4072;42.668;23.396;2023-04-03T03:21:57;3.13;;;2.23;;
8058;SDS011;4072;42.668;23.396;2023-04-03T03:24:25;5.80;;;2.17;;
8058;SDS011;4072;42.668;23.396;2023-04-03T03:26:52;2.67;;;2.10;;
8058;SDS011;4072;42.668;23.396;2023-04-03T03:29:20;2.63;;;2.43;;
8058;SDS011;4072;42.668;23.396;2023-04-03T03:31:48;4.40;;;1.90;;
8058;SDS011;4072;42.668;23.396;2023-04-03T03:34:18;2.67;;;1.87;;
8058;SDS011;4072;42.668;23.396;2023-04-03T03:36:46;2.97;;;2.20;;
8058;SDS011;4072;42.668;23.396;2023-04-03T03:39:14;2.43;;;1.90;;
8058;SDS011;4072;42.668;23.396;2023-04-03T03:41:42;4.93;;;1.90;;
8058;SDS011;4072;42.668;23.396;2023-04-03T03:44:10;2.80;;;1.77;;
8058;SDS011;4072;42.668;23.396;2023-04-03T03:46:40;2.57;;;2.10;;
8058;SDS011;4072;42.668;23.396;2023-04-03T03:49:08;1.97;;;1.70;;
8058;SDS011;4072;42.668;23.396;2023-04-03T03:51:37;2.60;;;2.00;;
8058;SDS011;4072;42.668;23.396;2023-04-03T03:54:05;3.33;;;2.20;;
8058;SDS011;4072;42.668;23.396;2023-04-03T03:56:33;3.57;;;2.00;;
8058;SDS011;4072;42.668;23.396;2023-04-03T03:59:04;5.23;;;2.43;;
8058;SDS011;4072;42.668;23.396;2023-04-03T04:01:32;2.10;;;1.87;;
8058;SDS011;4072;42.668;23.396;2023-04-03T04:04:01;4.17;;;2.80;;
8058;SDS011;4072;42.668;23.396;2023-04-03T04:06:28;4.10;;;2.50;;
8058;SDS011;4072;42.668;23.396;2023-04-03T04:08:57;3.13;;;2.53;;
8058;SDS011;4072;42.668;23.396;2023-04-03T04:11:26;4.70;;;3.37;;
8058;SDS011;4072;42.668;23.396;2023-04-03T04:13:54;14.37;;;4.33;;
8058;SDS011;4072;42.668;23.396;2023-04-03T04:16:22;3.63;;;2.37;;
8058;SDS011;4072;42.668;23.396;2023-04-03T04:18:50;3.73;;;2.43;;
8058;SDS011;4072;42.668;23.396;2023-04-03T04:21:18;3.20;;;2.60;;
8058;SDS011;4072;42.668;23.396;2023-04-03T04:23:46;2.63;;;2.43;;
8058;SDS011;4072;42.668;23.396;2023-04-03T04:26:16;2.33;;;2.00;;
8058;SDS011;4072;42.668;23.396;2023-04-03T04:28:43;2.97;;;2.00;;
8058;SDS011;4072;42.668;23.396;2023-04-03T04:31:12;2.73;;;2.30;;
8058;SDS011;4072;42.668;23.396;2023-04-03T04:33:40;3.07;;;2.57;;
8058;SDS011;4072;42.668;23.396;2023-04-03T04:36:08;3.13;;;2.50;;
8058;SDS011;4072;42.668;23.396;2023-04-03T04:38:36;7.00;;;4.57;;
8058;SDS011;4072;42.668;23.396;2023-04-03T04:41:04;10.93;;;6.33;;
8058;SDS011;4072;42.668;23.396;2023-04-03T04:43:33;7.27;;;4.40;;
8058;SDS011;4072;42.668;23.396;2023-04-03T04:46:02;9.03;;;6.13;;
8058;SDS011;4072;42.668;23.396;2023-04-03T04:48:30;10.33;;;5.07;;
8058;SDS011;4072;42.668;23.396;2023-04-03T04:50:58;10.13;;;6.23;;
8058;SDS011;4072;42.668;23.396;2023-04-03T04:53:25;8.97;;;5.20;;
8058;SDS011;4072;42.668;23.396;2023-04-03T04:55:54;4.83;;;3.10;;
8058;SDS011;4072;42.668;23.396;2023-04-03T04:58:22;8.80;;;3.50;;
8058;SDS011;4072;42.668;23.396;2023-04-03T05:00:51;4.83;;;3.90;;
8058;SDS011;4072;42.668;23.396;2023-04-03T05:03:25;5.20;;;4.03;;
8058;SDS011;4072;42.668;23.396;2023-04-03T05:05:53;5.30;;;4.17;;
8058;SDS011;4072;42.668;23.396;2023-04-03T05:08:21;6.47;;;3.27;;
8058;SDS011;4072;42.668;23.396;2023-04-03T05:10:49;5.90;;;2.93;;
8058;SDS011;4072;42.668;23.396;2023-04-03T05:13:20;10.87;;;4.47;;
8058;SDS011;4072;42.668;23.396;2023-04-03T05:15:48;8.93;;;3.50;;
8058;SDS011;4072;42.668;23.396;2023-04-03T05:18:18;3.57;;;2.87;;
8058;SDS011;4072;42.668;23.396;2023-04-03T05:20:47;4.93;;;2.80;;
8058;SDS011;4072;42.668;23.396;2023-04-03T05:23:15;5.70;;;3.10;;
8058;SDS011;4072;42.668;23.396;2023-04-03T05:25:43;4.90;;;2.80;;
8058;SDS011;4072;42.668;23.396;2023-04-03T05:28:13;3.10;;;2.23;;
8058;SDS011;4072;42.668;23.396;2023-04-03T05:30:41;4.13;;;2.30;;
8058;SDS011;4072;42.668;23.396;2023-04-03T05:33:09;5.80;;;2.30;;
8058;SDS011;4072;42.668;23.396;2023-04-03T05:35:39;4.40;;;2.87;;
8058;SDS011;4072;42.668;23.396;2023-04-03T05:38:08;8.53;;;3.03;;
8058;SDS011;4072;42.668;23.396;2023-04-03T05:40:36;4.87;;;2.97;;
8058;SDS011;4072;42.668;23.396;2023-04-03T05:43:04;5.27;;;2.70;;
8058;SDS011;4072;42.668;23.396;2023-04-03T05:45:32;5.00;;;2.40;;
8058;SDS011;4072;42.668;23.396;2023-04-03T05:47:59;3.83;;;2.30;;
8058;SDS011;4072;42.668;23.396;2023-04-03T05:50:28;4.07;;;3.10;;
8058;SDS011;4072;42.668;23.396;2023-04-03T05:52:58;8.30;;;3.23;;
8058;SDS011;4072;42.668;23.396;2023-04-03T05:55:26;12.03;;;7.07;;
8058;SDS011;4072;42.668;23.396;2023-04-03T05:57:54;16.00;;;9.77;;
8058;SDS011;4072;42.668;23.396;2023-04-03T06:00:22;20.57;;;10.50;;
8058;SDS011;4072;42.668;23.396;2023-04-03T06:02:50;16.70;;;9.77;;
8058;SDS011;4072;42.668;23.396;2023-04-03T06:05:18;33.83;;;20.90;;
8058;SDS011;4072;42.668;23.396;2023-04-03T06:07:46;45.47;;;34.00;;
8058;SDS011;4072;42.668;23.396;2023-04-03T06:10:17;58.57;;;40.20;;
8058;SDS011;4072;42.668;23.396;2023-04-03T06:12:46;50.57;;;40.03;;
8058;SDS011;4072;42.668;23.396;2023-04-03T06:15:14;50.00;;;38.97;;
8058;SDS011;4072;42.668;23.396;2023-04-03T06:17:43;30.57;;;24.57;;
8058;SDS011;4072;42.668;23.396;2023-04-03T06:20:12;18.83;;;14.70;;
8058;SDS011;4072;42.668;23.396;2023-04-03T06:22:39;14.33;;;11.00;;
8058;SDS011;4072;42.668;23.396;2023-04-03T06:25:08;19.43;;;10.00;;
8058;SDS011;4072;42.668;23.396;2023-04-03T06:27:38;14.97;;;10.43;;
8058;SDS011;4072;42.668;23.396;2023-04-03T06:30:06;17.83;;;10.97;;
8058;SDS011;4072;42.668;23.396;2023-04-03T06:32:35;17.80;;;10.43;;
8058;SDS011;4072;42.668;23.396;2023-04-03T06:35:04;17.20;;;11.10;;
8058;SDS011;4072;42.668;23.396;2023-04-03T06:37:33;15.67;;;11.00;;
8058;SDS011;4072;42.668;23.396;2023-04-03T06:40:00;14.63;;;10.50;;
8058;SDS011;4072;42.668;23.396;2023-04-03T06:42:29;19.23;;;9.80;;
8058;SDS011;4072;42.668;23.396;2023-04-03T06:44:58;14.80;;;11.80;;
8058;SDS011;4072;42.668;23.396;2023-04-03T06:47:26;12.50;;;9.33;;
8058;SDS011;4072;42.668;23.396;2023-04-03T06:49:55;14.90;;;11.90;;
8058;SDS011;4072;42.668;23.396;2023-04-03T06:52:22;17.03;;;11.03;;
8058;SDS011;4072;42.668;23.396;2023-04-03T06:54:50;18.63;;;13.50;;
8058;SDS011;4072;42.668;23.396;2023-04-03T06:57:23;18.53;;;10.93;;
8058;SDS011;4072;42.668;23.396;2023-04-03T06:59:51;18.93;;;11.83;;
8058;SDS011;4072;42.668;23.396;2023-04-03T07:02:21;17.80;;;11.77;;
8058;SDS011;4072;42.668;23.396;2023-04-03T07:04:49;14.00;;;11.57;;
8058;SDS011;4072;42.668;23.396;2023-04-03T07:07:17;18.37;;;11.00;;
8058;SDS011;4072;42.668;23.396;2023-04-03T07:09:46;16.10;;;11.57;;
8058;SDS011;4072;42.668;23.396;2023-04-03T07:12:14;17.53;;;11.90;;
8058;SDS011;4072;42.668;23.396;2023-04-03T07:14:43;20.23;;;11.97;;
8058;SDS011;4072;42.668;23.396;2023-04-03T07:17:11;20.47;;;11.53;;
8058;SDS011;4072;42.668;23.396;2023-04-03T07:19:40;19.27;;;13.50;;
8058;SDS011;4072;42.668;23.396;2023-04-03T07:22:10;17.63;;;12.47;;
8058;SDS011;4072;42.668;23.396;2023-04-03T07:24:38;19.87;;;15.37;;
8058;SDS011;4072;42.668;23.396;2023-04-03T07:27:06;20.27;;;13.97;;
8058;SDS011;4072;42.668;23.396;2023-04-03T07:29:35;19.80;;;14.07;;
8058;SDS011;4072;42.668;23.396;2023-04-03T07:32:05;18.43;;;13.13;;
8058;SDS011;4072;42.668;23.396;2023-04-03T07:34:33;18.83;;;14.00;;
8058;SDS011;4072;42.668;23.396;2023-04-03T07:37:03;27.00;;;13.20;;
8058;SDS011;4072;42.668;23.396;2023-04-03T07:39:31;19.30;;;13.17;;
8058;SDS011;4072;42.668;23.396;2023-04-03T07:41:58;15.37;;;12.63;;
8058;SDS011;4072;42.668;23.396;2023-04-03T07:44:26;15.80;;;11.43;;
8058;SDS011;4072;42.668;23.396;2023-04-03T07:46:54;16.57;;;12.77;;
8058;SDS011;4072;42.668;23.396;2023-04-03T07:49:22;13.37;;;10.67;;
8058;SDS011;4072;42.668;23.396;2023-04-03T07:51:50;14.37;;;12.13;;
8058;SDS011;4072;42.668;23.396;2023-04-03T07:54:20;13.33;;;10.17;;
8058;SDS011;4072;42.668;23.396;2023-04-03T07:56:48;11.83;;;9.27;;
8058;SDS011;4072;42.668;23.396;2023-04-03T07:59:16;14.20;;;11.03;;
8058;SDS011;4072;42.668;23.396;2023-04-03T08:01:44;15.77;;;10.60;;
8058;SDS011;4072;42.668;23.396;2023-04-03T08:04:12;14.57;;;10.43;;
8058;SDS011;4072;42.668;23.396;2023-04-03T08:06:41;15.70;;;10.17;;
8058;SDS011;4072;42.668;23.396;2023-04-03T08:09:12;17.07;;;11.03;;
8058;SDS011;4072;42.668;23.396;2023-04-03T08:11:43;11.20;;;9.53;;
8058;SDS011;4072;42.668;23.396;2023-04-03T08:14:11;13.27;;;9.17;;
8058;SDS011;4072;42.668;23.396;2023-04-03T08:16:43;18.17;;;12.27;;
8058;SDS011;4072;42.668;23.396;2023-04-03T08:19:11;17.23;;;12.13;;
8058;SDS011;4072;42.668;23.396;2023-04-03T08:21:52;16.03;;;10.93;;
8058;SDS011;4072;42.668;23.396;2023-04-03T08:24:19;13.93;;;12.53;;
8058;SDS011;4072;42.668;23.396;2023-04-03T08:26:49;15.00;;;12.03;;
8058;SDS011;4072;42.668;23.396;2023-04-03T08:29:17;12.53;;;10.10;;
8058;SDS011;4072;42.668;23.396;2023-04-03T08:31:45;15.27;;;12.23;;
8058;SDS011;4072;42.668;23.396;2023-04-03T08:34:13;15.00;;;10.77;;
8058;SDS011;4072;42.668;23.396;2023-04-03T08:36:41;16.63;;;11.23;;
8058;SDS011;4072;42.668;23.396;2023-04-03T08:39:09;20.50;;;12.50;;
8058;SDS011;4072;42.668;23.396;2023-04-03T08:41:37;18.03;;;12.70;;
8058;SDS011;4072;42.668;23.396;2023-04-03T08:44:29;18.73;;;11.33;;
8058;SDS011;4072;42.668;23.396;2023-04-03T08:47:02;14.70;;;11.63;;
8058;SDS011;4072;42.668;23.396;2023-04-03T08:49:33;16.80;;;12.23;;
8058;SDS011;4072;42.668;23.396;2023-04-03T08:52:03;16.60;;;12.97;;
8058;SDS011;4072;42.668;23.396;2023-04-03T08:54:33;21.80;;;11.90;;
8058;SDS011;4072;42.668;23.396;2023-04-03T08:57:02;14.73;;;11.13;;
8058;SDS011;4072;42.668;23.396;2023-04-03T08:59:34;13.83;;;10.47;;
8058;SDS011;4072;42.668;23.396;2023-04-03T09:02:04;14.87;;;10.03;;
8058;SDS011;4072;42.668;23.396;2023-04-03T09:04:41;13.73;;;9.37;;
8058;SDS011;4072;42.668;23.396;2023-04-03T09:07:13;18.13;;;10.53;;
8058;SDS011;4072;42.668;23.396;2023-04-03T09:09:44;14.73;;;10.80;;
8058;SDS011;4072;42.668;23.396;2023-04-03T09:12:17;13.30;;;11.00;;
8058;SDS011;4072;42.668;23.396;2023-04-03T09:14:49;14.20;;;10.07;;
8058;SDS011;4072;42.668;23.396;2023-04-03T09:17:26;10.90;;;8.97;;
8058;SDS011;4072;42.668;23.396;2023-04-03T09:20:02;13.33;;;8.93;;
8058;SDS011;4072;42.668;23.396;2023-04-03T09:22:35;14.97;;;9.63;;
8058;SDS011;4072;42.668;23.396;2023-04-03T09:25:15;13.33;;;9.43;;
8058;SDS011;4072;42.668;23.396;2023-04-03T09:27:43;14.67;;;8.00;;
8058;SDS011;4072;42.668;23.396;2023-04-03T09:30:15;11.10;;;8.03;;
8058;SDS011;4072;42.668;23.396;2023-04-03T09:32:44;13.80;;;8.17;;
8058;SDS011;4072;42.668;23.396;2023-04-03T09:35:17;13.63;;;8.43;;
8058;SDS011;4072;42.668;23.396;2023-04-03T09:37:58;14.17;;;8.53;;
8058;SDS011;4072;42.668;23.396;2023-04-03T09:40:28;10.87;;;8.83;;
8058;SDS011;4072;42.668;23.396;2023-04-03T09:42:57;10.73;;;8.87;;
8058;SDS011;4072;42.668;23.396;2023-04-03T09:45:29;16.50;;;9.53;;
8058;SDS011;4072;42.668;23.396;2023-04-03T09:48:05;19.03;;;10.13;;
8058;SDS011;4072;42.668;23.396;2023-04-03T09:50:38;15.10;;;9.97;;
8058;SDS011;4072;42.668;23.396;2023-04-03T09:53:07;14.53;;;9.33;;
8058;SDS011;4072;42.668;23.396;2023-04-03T09:55:41;14.03;;;9.67;;
8058;SDS011;4072;42.668;23.396;2023-04-03T09:58:23;14.30;;;9.00;;
8058;SDS011;4072;42.668;23.396;2023-04-03T10:00:58;16.60;;;8.70;;
8058;SDS011;4072;42.668;23.396;2023-04-03T10:03:28;15.13;;;8.43;;
8058;SDS011;4072;42.668;23.396;2023-04-03T10:05:59;8.47;;;6.33;;
8058;SDS011;4072;42.668;23.396;2023-04-03T10:08:28;15.03;;;8.33;;
8058;SDS011;4072;42.668;23.396;2023-04-03T10:11:08;12.23;;;8.20;;
8058;SDS011;4072;42.668;23.396;2023-04-03T10:13:48;12.50;;;8.60;;
8058;SDS011;4072;42.668;23.396;2023-04-03T10:16:20;7.77;;;6.87;;
8058;SDS011;4072;42.668;23.396;2023-04-03T10:18:49;12.07;;;6.27;;
8058;SDS011;4072;42.668;23.396;2023-04-03T10:21:22;7.30;;;5.50;;
8058;SDS011;4072;42.668;23.396;2023-04-03T10:23:54;9.30;;;7.27;;
8058;SDS011;4072;42.668;23.396;2023-04-03T10:26:29;8.13;;;6.13;;
8058;SDS011;4072;42.668;23.396;2023-04-03T10:29:02;6.77;;;5.60;;
8058;SDS011;4072;42.668;23.396;2023-04-03T10:31:36;11.97;;;5.03;;
8058;SDS011;4072;42.668;23.396;2023-04-03T10:34:06;12.13;;;5.97;;
8058;SDS011;4072;42.668;23.396;2023-04-03T10:36:36;8.00;;;6.00;;
8058;SDS011;4072;42.668;23.396;2023-04-03T10:39:10;14.30;;;5.50;;
8058;SDS011;4072;42.668;23.396;2023-04-03T10:41:44;7.10;;;4.80;;
8058;SDS011;4072;42.668;23.396;2023-04-03T10:44:16;4.77;;;4.10;;
8058;SDS011;4072;42.668;23.396;2023-04-03T10:46:49;7.23;;;4.63;;
8058;SDS011;4072;42.668;23.396;2023-04-03T10:49:25;7.53;;;4.33;;
8058;SDS011;4072;42.668;23.396;2023-04-03T10:52:02;11.33;;;3.70;;
8058;SDS011;4072;42.668;23.396;2023-04-03T10:54:34;8.13;;;4.23;;
8058;SDS011;4072;42.668;23.396;2023-04-03T10:57:04;7.00;;;4.03;;
8058;SDS011;4072;42.668;23.396;2023-04-03T10:59:40;6.40;;;3.60;;
8058;SDS011;4072;42.668;23.396;2023-04-03T11:02:13;7.10;;;4.10;;
8058;SDS011;4072;42.668;23.396;2023-04-03T11:04:46;5.10;;;4.03;;
8058;SDS011;4072;42.668;23.396;2023-04-03T11:07:18;3.33;;;3.03;;
8058;SDS011;4072;42.668;23.396;2023-04-03T11:09:48;6.57;;;3.23;;
8058;SDS011;4072;42.668;23.396;2023-04-03T11:12:18;3.63;;;3.27;;
8058;SDS011;4072;42.668;23.396;2023-04-03T11:14:48;4.27;;;2.80;;
8058;SDS011;4072;42.668;23.396;2023-04-03T11:20:06;8.93;;;3.93;;
8058;SDS011;4072;42.668;23.396;2023-04-03T11:22:36;4.73;;;3.07;;
8058;SDS011;4072;42.668;23.396;2023-04-03T11:25:08;3.47;;;3.13;;
8058;SDS011;4072;42.668;23.396;2023-04-03T11:27:42;4.13;;;3.17;;
8058;SDS011;4072;42.668;23.396;2023-04-03T11:30:14;3.80;;;3.50;;
8058;SDS011;4072;42.668;23.396;2023-04-03T11:32:49;3.47;;;3.17;;
8058;SDS011;4072;42.668;23.396;2023-04-03T11:35:23;4.37;;;3.30;;
8058;SDS011;4072;42.668;23.396;2023-04-03T11:37:54;3.50;;;3.20;;
8058;SDS011;4072;42.668;23.396;2023-04-03T11:40:24;5.57;;;5.07;;
8058;SDS011;4072;42.668;23.396;2023-04-03T11:42:54;4.67;;;3.67;;
8058;SDS011;4072;42.668;23.396;2023-04-03T11:45:26;3.50;;;3.20;;
8058;SDS011;4072;42.668;23.396;2023-04-03T11:47:58;4.13;;;3.30;;
8058;SDS011;4072;42.668;23.396;2023-04-03T11:50:40;5.47;;;4.13;;
8058;SDS011;4072;42.668;23.396;2023-04-03T11:55:59;4.70;;;3.40;;
8058;SDS011;4072;42.668;23.396;2023-04-03T11:58:29;3.77;;;3.47;;
8058;SDS011;4072;42.668;23.396;2023-04-03T12:00:58;3.07;;;2.60;;
8058;SDS011;4072;42.668;23.396;2023-04-03T12:03:33;2.83;;;2.40;;
8058;SDS011;4072;42.668;23.396;2023-04-03T12:08:51;5.00;;;4.37;;
8058;SDS011;4072;42.668;23.396;2023-04-03T12:11:23;4.60;;;3.20;;
8058;SDS011;4072;42.668;23.396;2023-04-03T12:14:03;2.83;;;2.63;;
8058;SDS011;4072;42.668;23.396;2023-04-03T12:16:32;3.83;;;3.30;;
8058;SDS011;4072;42.668;23.396;2023-04-03T12:19:02;3.13;;;2.93;;
8058;SDS011;4072;42.668;23.396;2023-04-03T12:24:27;5.00;;;3.27;;
8058;SDS011;4072;42.668;23.396;2023-04-03T12:27:02;4.67;;;3.70;;
8058;SDS011;4072;42.668;23.396;2023-04-03T12:29:33;4.77;;;4.17;;
8058;SDS011;4072;42.668;23.396;2023-04-03T12:32:09;5.53;;;4.97;;
8058;SDS011;4072;42.668;23.396;2023-04-03T12:34:49;5.57;;;4.50;;
8058;SDS011;4072;42.668;23.396;2023-04-03T12:37:23;7.47;;;5.27;;
8058;SDS011;4072;42.668;23.396;2023-04-03T12:40:00;5.53;;;4.90;;
8058;SDS011;4072;42.668;23.396;2023-04-03T12:42:38;7.27;;;5.50;;
8058;SDS011;4072;42.668;23.396;2023-04-03T12:45:10;6.50;;;4.20;;
8058;SDS011;4072;42.668;23.396;2023-04-03T12:47:42;6.73;;;6.13;;
8058;SDS011;4072;42.668;23.396;2023-04-03T12:50:18;7.77;;;6.37;;
8058;SDS011;4072;42.668;23.396;2023-04-03T12:52:51;9.07;;;6.93;;
8058;SDS011;4072;42.668;23.396;2023-04-03T12:55:22;5.90;;;5.30;;
8058;SDS011;4072;42.668;23.396;2023-04-03T12:57:49;6.40;;;5.77;;
8058;SDS011;4072;42.668;23.396;2023-04-03T13:00:22;5.83;;;5.33;;
8058;SDS011;4072;42.668;23.396;2023-04-03T13:02:53;7.03;;;5.90;;
8058;SDS011;4072;42.668;23.396;2023-04-03T13:05:22;8.37;;;5.43;;
8058;SDS011;4072;42.668;23.396;2023-04-03T13:07:52;9.37;;;7.93;;
8058;SDS011;4072;42.668;23.396;2023-04-03T13:10:22;9.43;;;7.27;;
8058;SDS011;4072;42.668;23.396;2023-04-03T13:12:51;8.13;;;7.43;;
8058;SDS011;4072;42.668;23.396;2023-04-03T13:15:20;9.30;;;8.43;;
8058;SDS011;4072;42.668;23.396;2023-04-03T13:17:51;9.63;;;8.73;;
8058;SDS011;4072;42.668;23.396;2023-04-03T13:20:21;8.63;;;7.80;;
8058;SDS011;4072;42.668;23.396;2023-04-03T13:22:52;9.83;;;8.03;;
8058;SDS011;4072;42.668;23.396;2023-04-03T13:25:23;8.70;;;7.83;;
8058;SDS011;4072;42.668;23.396;2023-04-03T13:27:51;9.93;;;8.43;;
8058;SDS011;4072;42.668;23.396;2023-04-03T13:30:37;9.00;;;8.10;;
8058;SDS011;4072;42.668;23.396;2023-04-03T13:33:17;9.50;;;8.60;;
8058;SDS011;4072;42.668;23.396;2023-04-03T13:35:47;8.50;;;7.63;;
8058;SDS011;4072;42.668;23.396;2023-04-03T13:38:22;11.17;;;8.97;;
8058;SDS011;4072;42.668;23.396;2023-04-03T13:40:53;11.47;;;10.37;;
8058;SDS011;4072;42.668;23.396;2023-04-03T13:43:23;12.77;;;11.43;;
8058;SDS011;4072;42.668;23.396;2023-04-03T13:45:59;12.60;;;10.70;;
8058;SDS011;4072;42.668;23.396;2023-04-03T13:48:27;15.10;;;11.57;;
8058;SDS011;4072;42.668;23.396;2023-04-03T13:51:03;12.53;;;11.20;;
8058;SDS011;4072;42.668;23.396;2023-04-03T13:53:33;15.37;;;13.13;;
8058;SDS011;4072;42.668;23.396;2023-04-03T13:56:07;15.53;;;13.37;;
8058;SDS011;4072;42.668;23.396;2023-04-03T13:58:36;14.50;;;12.97;;
8058;SDS011;4072;42.668;23.396;2023-04-03T14:01:09;20.17;;;17.97;;
8058;SDS011;4072;42.668;23.396;2023-04-03T14:03:40;16.70;;;15.00;;
8058;SDS011;4072;42.668;23.396;2023-04-03T14:06:10;22.87;;;20.67;;
8058;SDS011;4072;42.668;23.396;2023-04-03T14:08:39;18.87;;;16.97;;
8058;SDS011;4072;42.668;23.396;2023-04-03T14:11:12;13.37;;;11.97;;
8058;SDS011;4072;42.668;23.396;2023-04-03T14:13:42;15.83;;;14.17;;
8058;SDS011;4072;42.668;23.396;2023-04-03T14:16:14;14.87;;;13.27;;
8058;SDS011;4072;42.668;23.396;2023-04-03T14:18:43;13.13;;;11.67;;
8058;SDS011;4072;42.668;23.396;2023-04-03T14:21:13;12.87;;;11.57;;
8058;SDS011;4072;42.668;23.396;2023-04-03T14:23:41;14.63;;;13.13;;
8058;SDS011;4072;42.668;23.396;2023-04-03T14:26:10;12.50;;;11.30;;
8058;SDS011;4072;42.668;23.396;2023-04-03T14:28:41;11.37;;;10.27;;
8058;SDS011;4072;42.668;23.396;2023-04-03T14:31:10;10.97;;;9.73;;
8058;SDS011;4072;42.668;23.396;2023-04-03T14:33:39;10.37;;;9.37;;
8058;SDS011;4072;42.668;23.396;2023-04-03T14:36:11;11.40;;;10.30;;
8058;SDS011;4072;42.668;23.396;2023-04-03T14:38:40;9.70;;;8.13;;
8058;SDS011;4072;42.668;23.396;2023-04-03T14:41:10;8.80;;;7.97;;
8058;SDS011;4072;42.668;23.396;2023-04-03T14:43:44;11.67;;;10.33;;
8058;SDS011;4072;42.668;23.396;2023-04-03T14:46:13;11.93;;;10.67;;
8058;SDS011;4072;42.668;23.396;2023-04-03T14:48:41;11.73;;;9.30;;
8058;SDS011;4072;42.668;23.396;2023-04-03T14:51:10;9.30;;;7.87;;
8058;SDS011;4072;42.668;23.396;2023-04-03T14:53:38;6.47;;;5.80;;
8058;SDS011;4072;42.668;23.396;2023-04-03T14:56:11;5.80;;;5.33;;
8058;SDS011;4072;42.668;23.396;2023-04-03T14:58:39;4.87;;;4.43;;
8058;SDS011;4072;42.668;23.396;2023-04-03T15:01:09;5.63;;;5.13;;
8058;SDS011;4072;42.668;23.396;2023-04-03T15:03:38;6.50;;;5.40;;
8058;SDS011;4072;42.668;23.396;2023-04-03T15:06:08;6.07;;;5.17;;
8058;SDS011;4072;42.668;23.396;2023-04-03T15:08:36;5.03;;;4.63;;
8058;SDS011;4072;42.668;23.396;2023-04-03T15:11:04;5.97;;;5.37;;
8058;SDS011;4072;42.668;23.396;2023-04-03T15:13:32;5.77;;;5.27;;
8058;SDS011;4072;42.668;23.396;2023-04-03T15:16:00;6.07;;;5.07;;
8058;SDS011;4072;42.668;23.396;2023-04-03T15:18:31;6.77;;;5.17;;
8058;SDS011;4072;42.668;23.396;2023-04-03T15:21:00;5.70;;;5.13;;